createdAt,value
2018-06-14T00:00:01.501Z,12.70
2018-06-14T00:02:27.446Z,12.80
2018-06-14T00:04:54.130Z,12.80
2018-06-14T00:07:20.103Z,12.80
2018-06-14T00:09:46.760Z,12.70
2018-06-14T00:12:12.687Z,12.70
2018-06-14T00:14:38.641Z,12.70
2018-06-14T00:17:04.559Z,12.70
2018-06-14T00:19:30.519Z,12.70
2018-06-14T00:21:57.177Z,12.80
2018-06-14T00:24:23.112Z,12.80
2018-06-14T00:26:49.054Z,12.80
2018-06-14T00:29:15.015Z,12.80
2018-06-14T00:31:40.945Z,12.80
2018-06-14T00:34:07.664Z,12.70
2018-06-14T00:36:33.592Z,12.70
2018-06-14T00:38:59.528Z,12.70
2018-06-14T00:41:26.217Z,12.60
2018-06-14T00:43:52.163Z,12.60
2018-06-14T00:46:18.108Z,12.60
2018-06-14T00:48:44.061Z,12.60
2018-06-14T00:51:10.023Z,12.60
2018-06-14T00:53:35.952Z,12.60
2018-06-14T00:56:01.853Z,12.60
2018-06-14T00:58:27.782Z,12.50
2018-06-14T01:00:53.735Z,12.40
2018-06-14T01:03:19.671Z,12.30
2018-06-14T01:05:46.321Z,12.30
2018-06-14T01:08:12.268Z,12.30
2018-06-14T01:10:38.181Z,12.30
2018-06-14T01:13:04.092Z,12.30
2018-06-14T01:15:30.029Z,12.30
2018-06-14T01:17:55.947Z,12.40
2018-06-14T01:20:21.902Z,12.40
2018-06-14T01:22:47.814Z,12.40
2018-06-14T01:25:13.768Z,12.40
2018-06-14T01:27:39.717Z,12.30
2018-06-14T01:30:05.635Z,12.30
2018-06-14T01:32:31.590Z,12.30
2018-06-14T01:34:57.541Z,12.20
2018-06-14T01:37:23.486Z,12.20
2018-06-14T01:39:50.154Z,12.20
2018-06-14T01:42:16.111Z,12.20
2018-06-14T01:44:42.049Z,12.20
2018-06-14T01:47:07.968Z,12.20
2018-06-14T01:49:33.914Z,12.10
2018-06-14T01:52:00.569Z,12.00
2018-06-14T01:54:26.515Z,12.00
2018-06-14T01:56:52.445Z,12.00
2018-06-14T01:59:18.384Z,12.00
2018-06-14T02:01:44.335Z,11.90
2018-06-14T02:04:11.089Z,11.90
2018-06-14T02:06:37.032Z,11.90
2018-06-14T02:09:02.956Z,11.90
2018-06-14T02:11:28.891Z,11.80
2018-06-14T02:13:54.855Z,11.90
2018-06-14T02:16:20.799Z,11.90
2018-06-14T02:18:47.478Z,11.90
2018-06-14T02:21:13.483Z,11.80
2018-06-14T02:23:39.424Z,11.90
2018-06-14T02:26:05.392Z,11.90
2018-06-14T02:28:32.052Z,12.00
2018-06-14T02:30:57.987Z,11.90
2018-06-14T02:33:23.925Z,12.00
2018-06-14T02:35:49.846Z,12.00
2018-06-14T02:38:15.785Z,12.00
2018-06-14T02:40:41.708Z,12.10
2018-06-14T02:43:07.855Z,12.10
2018-06-14T02:45:34.537Z,12.00
2018-06-14T02:48:00.466Z,12.00
2018-06-14T02:50:26.419Z,12.00
2018-06-14T02:52:52.338Z,12.00
2018-06-14T02:55:18.286Z,12.00
2018-06-14T02:57:44.961Z,12.00
2018-06-14T03:00:10.892Z,12.00
2018-06-14T03:02:36.886Z,12.00
2018-06-14T03:05:03.579Z,12.00
2018-06-14T03:07:29.508Z,12.00
2018-06-14T03:09:55.466Z,12.00
2018-06-14T03:12:22.163Z,12.10
2018-06-14T03:14:48.081Z,12.10
2018-06-14T03:17:14.012Z,12.10
2018-06-14T03:19:39.966Z,12.20
2018-06-14T03:22:06.619Z,12.20
2018-06-14T03:24:33.275Z,12.10
2018-06-14T03:26:59.214Z,12.10
2018-06-14T03:29:25.153Z,12.20
2018-06-14T03:31:51.098Z,12.20
2018-06-14T03:34:17.061Z,12.30
2018-06-14T03:36:43.017Z,12.30
2018-06-14T03:39:08.990Z,12.40
2018-06-14T03:41:34.928Z,12.40
2018-06-14T03:44:00.873Z,12.40
2018-06-14T03:46:26.863Z,12.50
2018-06-14T03:48:52.828Z,12.40
2018-06-14T03:51:18.775Z,12.50
2018-06-14T03:53:45.457Z,12.60
2018-06-14T03:56:11.396Z,12.60
2018-06-14T03:58:37.341Z,12.70
2018-06-14T04:01:03.278Z,12.70
2018-06-14T04:03:29.961Z,12.80
2018-06-14T04:05:55.889Z,12.70
2018-06-14T04:08:21.859Z,12.80
2018-06-14T04:10:47.778Z,12.80
2018-06-14T04:13:13.720Z,12.80
2018-06-14T04:15:40.401Z,12.80
2018-06-14T04:18:06.356Z,12.80
2018-06-14T04:20:32.300Z,12.80
2018-06-14T04:22:58.984Z,13.00
2018-06-14T04:25:24.911Z,12.90
2018-06-14T04:27:50.846Z,13.00
2018-06-14T04:30:16.864Z,13.00
2018-06-14T04:32:42.769Z,13.00
2018-06-14T04:35:08.739Z,13.10
2018-06-14T04:37:34.659Z,13.20
2018-06-14T04:40:00.579Z,13.30
2018-06-14T04:42:26.517Z,13.40
2018-06-14T04:44:53.171Z,13.50
2018-06-14T04:47:19.135Z,13.50
2018-06-14T04:49:45.082Z,13.70
2018-06-14T04:52:11.780Z,13.90
2018-06-14T04:54:37.715Z,13.90
2018-06-14T04:57:03.694Z,14.00
2018-06-14T04:59:30.355Z,14.10
2018-06-14T05:01:56.314Z,14.10
2018-06-14T05:04:22.241Z,14.20
2018-06-14T05:06:48.186Z,14.20
2018-06-14T05:09:14.867Z,14.30
2018-06-14T05:11:40.783Z,14.30
2018-06-14T05:14:06.729Z,14.40
2018-06-14T05:16:32.669Z,14.40
2018-06-14T05:18:58.625Z,14.40
2018-06-14T05:21:24.551Z,14.50
2018-06-14T05:23:51.353Z,14.60
2018-06-14T05:26:17.305Z,14.60
2018-06-14T05:28:43.968Z,14.80
2018-06-14T05:31:09.952Z,14.80
2018-06-14T05:33:36.644Z,14.80
2018-06-14T05:36:02.605Z,14.80
2018-06-14T05:38:28.554Z,14.80
2018-06-14T05:40:55.247Z,15.00
2018-06-14T05:43:21.142Z,15.00
2018-06-14T05:45:47.094Z,15.10
2018-06-14T05:48:13.028Z,15.20
2018-06-14T05:50:38.982Z,15.30
2018-06-14T05:53:04.917Z,15.40
2018-06-14T05:55:30.866Z,15.50
2018-06-14T05:57:56.810Z,15.60
2018-06-14T06:00:22.734Z,15.70
2018-06-14T06:02:48.739Z,15.70
2018-06-14T06:05:14.666Z,15.80
2018-06-14T06:07:40.633Z,15.90
2018-06-14T06:10:07.299Z,16.30
2018-06-14T06:12:33.211Z,16.30
2018-06-14T06:14:59.157Z,16.40
2018-06-14T06:17:25.085Z,16.40
2018-06-14T06:19:51.104Z,16.50
2018-06-14T06:22:16.986Z,16.50
2018-06-14T06:24:43.692Z,16.80
2018-06-14T06:27:09.617Z,16.70
2018-06-14T06:29:35.542Z,17.00
2018-06-14T06:32:01.485Z,17.20
2018-06-14T06:34:28.175Z,17.90
2018-06-14T06:36:54.126Z,17.90
2018-06-14T06:39:20.070Z,19.10
2018-06-14T06:41:46.050Z,19.90
2018-06-14T06:44:11.976Z,21.10
2018-06-14T06:46:37.916Z,21.60
2018-06-14T06:49:03.876Z,22.70
2018-06-14T06:51:29.812Z,23.30
2018-06-14T06:53:55.747Z,23.70
2018-06-14T06:56:21.681Z,24.10
2018-06-14T06:58:47.634Z,23.80
2018-06-14T07:01:14.311Z,24.80
2018-06-14T07:03:40.282Z,24.80
2018-06-14T07:06:06.262Z,25.00
2018-06-14T07:08:32.191Z,25.20
2018-06-14T07:10:58.156Z,25.80
2018-06-14T07:13:24.834Z,25.80
2018-06-14T07:15:50.802Z,25.80
2018-06-14T07:18:16.728Z,26.10
2018-06-14T07:20:42.687Z,26.00
2018-06-14T07:23:08.625Z,26.50
2018-06-14T07:25:34.592Z,26.80
2018-06-14T07:28:00.545Z,27.20
2018-06-14T07:30:27.208Z,27.50
2018-06-14T07:32:53.159Z,27.50
2018-06-14T07:35:19.107Z,27.90
2018-06-14T07:37:45.058Z,27.90
2018-06-14T07:40:10.997Z,27.70
2018-06-14T07:42:36.937Z,27.30
2018-06-14T07:45:02.864Z,27.40
2018-06-14T07:47:28.846Z,27.80
2018-06-14T07:49:54.776Z,27.80
2018-06-14T07:52:20.729Z,27.80
2018-06-14T07:54:46.661Z,28.50
2018-06-14T07:57:12.584Z,28.70
2018-06-14T07:59:38.557Z,28.40
2018-06-14T08:02:04.511Z,28.40
2018-06-14T08:04:30.489Z,28.40
2018-06-14T08:06:57.154Z,28.60
2018-06-14T08:09:23.070Z,28.60
2018-06-14T08:11:49.043Z,28.90
2018-06-14T08:14:14.984Z,29.60
2018-06-14T08:16:41.700Z,30.70
2018-06-14T08:19:07.629Z,30.60
2018-06-14T08:21:33.585Z,31.10
2018-06-14T08:23:59.525Z,30.80
2018-06-14T08:26:25.492Z,29.20
2018-06-14T08:28:51.438Z,29.20
2018-06-14T08:31:18.103Z,28.40
2018-06-14T08:33:44.076Z,28.30
2018-06-14T08:36:10.023Z,28.40
2018-06-14T08:38:36.713Z,29.20
2018-06-14T08:41:02.636Z,29.20
2018-06-14T08:43:28.583Z,29.70
2018-06-14T08:45:54.534Z,30.10
2018-06-14T08:48:21.222Z,29.80
2018-06-14T08:50:47.147Z,29.70
2018-06-14T08:53:13.084Z,29.20
2018-06-14T08:55:39.053Z,28.60
2018-06-14T08:58:04.971Z,28.90
2018-06-14T09:00:30.934Z,29.80
2018-06-14T09:02:56.839Z,30.30
2018-06-14T09:05:22.794Z,30.00
2018-06-14T09:07:48.729Z,30.10
2018-06-14T09:10:14.652Z,30.30
2018-06-14T09:12:41.352Z,30.00
2018-06-14T09:15:08.005Z,29.50
2018-06-14T09:17:33.976Z,29.40
2018-06-14T09:20:00.641Z,29.60
2018-06-14T09:22:26.608Z,29.50
2018-06-14T09:24:52.553Z,29.50
2018-06-14T09:27:19.215Z,28.60
2018-06-14T09:29:45.186Z,28.50
2018-06-14T09:32:11.104Z,28.20
2018-06-14T09:34:37.081Z,27.80
2018-06-14T09:37:03.004Z,27.30
2018-06-14T09:39:28.976Z,27.90
2018-06-14T09:41:54.912Z,28.80
2018-06-14T09:44:20.834Z,29.50
2018-06-14T09:46:47.538Z,29.20
2018-06-14T09:49:13.491Z,29.10
2018-06-14T09:51:40.190Z,28.00
2018-06-14T09:54:06.124Z,28.00
2018-06-14T09:56:32.845Z,26.80
2018-06-14T09:58:58.773Z,26.80
2018-06-14T10:01:24.694Z,26.40
2018-06-14T10:03:50.653Z,26.70
2018-06-14T10:06:16.566Z,26.50
2018-06-14T10:08:42.506Z,26.20
2018-06-14T10:11:08.437Z,26.40
2018-06-14T10:13:35.128Z,26.60
2018-06-14T10:16:01.043Z,26.60
2018-06-14T10:18:26.957Z,26.80
2018-06-14T10:20:52.901Z,26.50
2018-06-14T10:23:18.820Z,26.30
2018-06-14T10:25:44.774Z,26.20
2018-06-14T10:28:10.720Z,26.00
2018-06-14T10:30:36.669Z,26.20
2018-06-14T10:33:02.609Z,25.80
2018-06-14T10:35:28.574Z,25.40
2018-06-14T10:37:55.235Z,25.50
2018-06-14T10:40:21.195Z,25.50
2018-06-14T10:42:47.142Z,25.60
2018-06-14T10:45:13.809Z,25.60
2018-06-14T10:47:39.749Z,25.60
2018-06-14T10:50:05.722Z,25.40
2018-06-14T10:52:31.681Z,25.40
2018-06-14T10:54:57.615Z,25.50
2018-06-14T10:57:23.558Z,25.60
2018-06-14T10:59:49.487Z,26.00
2018-06-14T11:02:15.402Z,25.70
2018-06-14T11:04:41.360Z,25.90
2018-06-14T11:07:07.275Z,25.90
2018-06-14T11:09:33.220Z,25.80
2018-06-14T11:11:59.152Z,25.20
2018-06-14T11:14:25.108Z,25.10
2018-06-14T11:16:51.048Z,25.20
2018-06-14T11:19:16.993Z,25.00
2018-06-14T11:21:43.678Z,25.00
2018-06-14T11:24:09.616Z,25.00
2018-06-14T11:26:35.559Z,24.90
2018-06-14T11:29:01.511Z,24.90
2018-06-14T11:31:27.482Z,24.80
2018-06-14T11:33:53.416Z,25.00
2018-06-14T11:36:19.347Z,25.00
2018-06-14T11:38:45.334Z,25.10
2018-06-14T11:41:11.303Z,25.20
2018-06-14T11:43:38.006Z,25.40
2018-06-14T11:46:03.954Z,25.30
2018-06-14T11:48:29.929Z,25.50
2018-06-14T11:50:55.860Z,25.50
2018-06-14T11:53:21.784Z,25.60
2018-06-14T11:55:47.744Z,25.20
2018-06-14T11:58:13.683Z,25.30
2018-06-14T12:00:40.380Z,24.90
2018-06-14T12:03:06.292Z,24.80
2018-06-14T12:05:32.229Z,24.90
2018-06-14T12:07:58.158Z,24.70
2018-06-14T12:10:24.140Z,24.40
2018-06-14T12:12:50.061Z,24.00
2018-06-14T12:15:16.066Z,24.10
2018-06-14T12:17:41.984Z,24.40
2018-06-14T12:20:08.657Z,24.10
2018-06-14T12:22:34.630Z,24.10
2018-06-14T12:25:01.348Z,23.80
2018-06-14T12:27:27.299Z,23.70
2018-06-14T12:29:53.984Z,23.80
2018-06-14T12:32:19.956Z,23.80
2018-06-14T12:34:45.902Z,23.60
2018-06-14T12:37:11.843Z,23.40
2018-06-14T12:39:37.788Z,23.30
2018-06-14T12:42:03.706Z,23.60
2018-06-14T12:44:29.662Z,23.70
2018-06-14T12:46:55.579Z,23.80
2018-06-14T12:49:21.557Z,23.70
2018-06-14T12:51:47.491Z,23.30
2018-06-14T12:54:13.392Z,23.20
2018-06-14T12:56:39.352Z,23.10
2018-06-14T12:59:05.280Z,23.00
2018-06-14T13:01:31.250Z,22.60
2018-06-14T13:03:57.183Z,22.40
2018-06-14T13:06:23.139Z,22.50
2018-06-14T13:08:49.089Z,22.40
2018-06-14T13:11:15.861Z,22.20
2018-06-14T13:13:41.767Z,22.20
2018-06-14T13:16:07.724Z,22.00
2018-06-14T13:18:33.660Z,21.70
2018-06-14T13:20:59.604Z,21.60
2018-06-14T13:23:25.599Z,21.60
2018-06-14T13:25:51.541Z,21.60
2018-06-14T13:28:17.486Z,21.60
2018-06-14T13:30:44.200Z,21.80
2018-06-14T13:33:10.135Z,21.80
2018-06-14T13:35:36.841Z,21.60
2018-06-14T13:38:02.769Z,21.60
2018-06-14T13:40:28.755Z,21.50
2018-06-14T13:42:54.677Z,21.30
2018-06-14T13:45:20.588Z,21.20
2018-06-14T13:47:47.307Z,20.90
2018-06-14T13:50:13.234Z,20.90
2018-06-14T13:52:39.946Z,21.10
2018-06-14T13:55:05.880Z,21.10
2018-06-14T13:57:31.821Z,21.00
2018-06-14T13:59:58.501Z,20.80
2018-06-14T14:02:24.432Z,20.80
2018-06-14T14:04:50.414Z,20.70
2018-06-14T14:07:16.358Z,20.70
2018-06-14T14:09:42.369Z,20.60
2018-06-14T14:12:09.147Z,20.60
2018-06-14T14:14:35.099Z,20.60
2018-06-14T14:17:01.797Z,20.40
2018-06-14T14:19:27.711Z,20.40
2018-06-14T14:21:53.680Z,20.30
2018-06-14T14:24:19.618Z,20.20
2018-06-14T14:26:46.290Z,19.90
2018-06-14T14:29:12.251Z,19.90
2018-06-14T14:31:38.178Z,19.80
2018-06-14T14:34:04.126Z,19.70
2018-06-14T14:36:30.812Z,19.50
2018-06-14T14:38:56.795Z,19.50
2018-06-14T14:41:23.474Z,19.60
2018-06-14T14:43:49.429Z,19.60
2018-06-14T14:46:15.386Z,19.70
2018-06-14T14:48:41.320Z,19.80
2018-06-14T14:51:07.255Z,19.60
2018-06-14T14:53:33.217Z,19.50
2018-06-14T14:55:59.173Z,19.40
2018-06-14T14:58:25.847Z,19.30
2018-06-14T15:00:51.842Z,19.30
2018-06-14T15:03:17.750Z,19.20
2018-06-14T15:05:44.434Z,19.20
2018-06-14T15:08:10.371Z,19.20
2018-06-14T15:10:36.278Z,19.20
2018-06-14T15:13:02.216Z,19.40
2018-06-14T15:15:28.131Z,19.30
2018-06-14T15:17:54.115Z,19.30
2018-06-14T15:20:20.036Z,19.20
2018-06-14T15:22:45.974Z,19.20
2018-06-14T15:25:18.969Z,19.10
2018-06-14T15:27:44.921Z,19.20
2018-06-14T15:30:10.906Z,19.30
2018-06-14T15:32:36.825Z,19.30
2018-06-14T15:35:02.765Z,19.20
2018-06-14T15:37:28.687Z,19.40
2018-06-14T15:39:54.615Z,19.40
2018-06-14T15:42:20.533Z,19.50
2018-06-14T15:44:46.502Z,19.40
2018-06-14T15:47:13.166Z,19.40
2018-06-14T15:49:39.096Z,19.40
2018-06-14T15:52:05.059Z,19.40
2018-06-14T15:54:30.996Z,19.50
2018-06-14T15:56:57.677Z,19.40
2018-06-14T15:59:23.616Z,19.40
2018-06-14T16:01:49.568Z,19.30
2018-06-14T16:04:16.265Z,19.10
2018-06-14T16:06:42.253Z,19.10
2018-06-14T16:09:08.910Z,19.00
2018-06-14T16:11:34.829Z,18.90
2018-06-14T16:14:00.790Z,19.00
2018-06-14T16:16:26.743Z,19.00
2018-06-14T16:18:52.704Z,19.10
2018-06-14T16:21:18.691Z,19.20
2018-06-14T16:23:44.612Z,19.40
2018-06-14T16:26:10.533Z,19.40
2018-06-14T16:28:37.204Z,19.30
2018-06-14T16:31:03.157Z,19.30
2018-06-14T16:33:29.938Z,19.30
2018-06-14T16:35:56.631Z,19.00
2018-06-14T16:38:23.328Z,18.80
2018-06-14T16:40:50.007Z,18.40
2018-06-14T16:43:16.684Z,18.20
2018-06-14T16:45:42.694Z,18.20
2018-06-14T16:48:08.603Z,18.10
2018-06-14T16:50:34.534Z,18.20
2018-06-14T16:53:00.531Z,18.20
2018-06-14T16:55:26.553Z,18.30
2018-06-14T16:57:52.521Z,18.10
2018-06-14T17:00:18.448Z,18.10
2018-06-14T17:02:45.152Z,18.00
2018-06-14T17:05:11.145Z,17.90
2018-06-14T17:07:37.839Z,18.10
2018-06-14T17:10:03.762Z,18.10
2018-06-14T17:12:29.701Z,18.10
2018-06-14T17:14:56.440Z,18.20
2018-06-14T17:17:22.424Z,18.20
2018-06-14T17:19:48.369Z,18.20
2018-06-14T17:22:14.323Z,18.20
2018-06-14T17:24:40.278Z,18.10
2018-06-14T17:27:06.210Z,18.10
2018-06-14T17:29:32.187Z,18.10
2018-06-14T17:31:58.875Z,17.90
2018-06-14T17:34:24.799Z,17.90
2018-06-14T17:36:50.752Z,17.90
2018-06-14T17:39:17.428Z,17.40
2018-06-14T17:41:43.382Z,17.40
2018-06-14T17:44:09.333Z,17.40
2018-06-14T17:46:35.303Z,17.40
2018-06-14T17:49:01.225Z,17.30
2018-06-14T17:51:27.169Z,17.30
2018-06-14T17:53:53.128Z,17.30
2018-06-14T17:56:19.807Z,17.10
2018-06-14T17:58:45.759Z,17.10
2018-06-14T18:01:11.680Z,17.00
2018-06-14T18:03:37.649Z,17.00
2018-06-14T18:06:04.869Z,16.80
2018-06-14T18:08:30.287Z,16.80
2018-06-14T18:10:56.237Z,16.90
2018-06-14T18:13:22.167Z,16.80
2018-06-14T18:15:48.105Z,16.70
2018-06-14T18:18:14.069Z,16.70
2018-06-14T18:20:40.041Z,16.60
2018-06-14T18:23:06.057Z,16.60
2018-06-14T18:25:32.764Z,16.70
2018-06-14T18:27:58.699Z,16.70
2018-06-14T18:30:25.374Z,16.70
2018-06-14T18:32:51.357Z,16.70
2018-06-14T18:35:17.348Z,16.70
2018-06-14T18:37:43.302Z,16.70
2018-06-14T18:40:09.966Z,16.40
2018-06-14T18:42:35.938Z,16.40
2018-06-14T18:45:01.878Z,16.50
2018-06-14T18:47:27.796Z,16.50
2018-06-14T18:49:53.733Z,16.60
2018-06-14T18:52:20.401Z,16.50
2018-06-14T18:54:46.348Z,16.50
2018-06-14T18:57:12.274Z,16.50
2018-06-14T18:59:38.250Z,16.50
2018-06-14T19:02:04.923Z,16.50
2018-06-14T19:04:30.877Z,16.50
2018-06-14T19:06:56.849Z,16.50
2018-06-14T19:09:22.786Z,16.50
2018-06-14T19:11:48.728Z,16.50
2018-06-14T19:14:15.390Z,16.60
2018-06-14T19:16:42.077Z,16.60
2018-06-14T19:19:07.996Z,16.60
2018-06-14T19:21:33.958Z,16.70
2018-06-14T19:23:59.891Z,16.50
2018-06-14T19:26:25.967Z,16.60
2018-06-14T19:28:51.821Z,16.60
2018-06-14T19:31:17.766Z,16.70
2018-06-14T19:33:44.437Z,16.60
2018-06-14T19:36:10.366Z,16.60
2018-06-14T19:38:36.332Z,16.60
2018-06-14T19:41:02.292Z,16.60
2018-06-14T19:43:28.218Z,16.60
2018-06-14T19:45:54.161Z,16.70
2018-06-14T19:48:20.096Z,16.60
2018-06-14T19:50:46.032Z,16.60
2018-06-14T19:53:11.955Z,16.70
2018-06-14T19:55:37.942Z,16.70
2018-06-14T19:58:03.895Z,16.60
2018-06-14T20:00:29.838Z,16.50
2018-06-14T20:02:55.795Z,16.50
2018-06-14T20:05:21.716Z,16.60
2018-06-14T20:07:47.657Z,16.60
2018-06-14T20:10:13.596Z,16.70
2018-06-14T20:12:39.545Z,16.70
2018-06-14T20:15:05.464Z,16.70
2018-06-14T20:17:31.380Z,16.70
2018-06-14T20:19:57.317Z,16.70
2018-06-14T20:22:23.993Z,16.60
2018-06-14T20:24:49.919Z,16.50
2018-06-14T20:27:15.849Z,16.60
2018-06-14T20:29:41.808Z,16.60
2018-06-14T20:32:08.502Z,16.70
2018-06-14T20:34:34.446Z,16.60
2018-06-14T20:37:00.405Z,16.70
2018-06-14T20:39:26.336Z,16.60
2018-06-14T20:41:53.056Z,16.60
2018-06-14T20:44:18.961Z,16.60
2018-06-14T20:46:44.903Z,16.70
2018-06-14T20:49:10.818Z,16.70
2018-06-14T20:51:36.759Z,16.70
2018-06-14T20:54:03.461Z,16.50
2018-06-14T20:56:30.131Z,16.50
2018-06-14T20:58:56.114Z,16.50
2018-06-14T21:01:22.079Z,16.50
2018-06-14T21:03:48.775Z,16.50
2018-06-14T21:06:14.715Z,16.50
2018-06-14T21:08:40.665Z,16.60
2018-06-14T21:11:07.339Z,16.60
2018-06-14T21:13:33.272Z,16.60
2018-06-14T21:15:59.244Z,16.50
2018-06-14T21:18:25.181Z,16.50
2018-06-14T21:20:51.927Z,16.50
2018-06-14T21:23:17.842Z,16.50
2018-06-14T21:25:44.513Z,16.50
2018-06-14T21:28:10.444Z,16.50
2018-06-14T21:30:36.368Z,16.50
2018-06-14T21:33:02.350Z,16.50
2018-06-14T21:35:28.286Z,16.40
2018-06-14T21:37:54.243Z,16.40
2018-06-14T21:40:20.206Z,16.40
2018-06-14T21:42:46.892Z,16.50
2018-06-14T21:45:12.838Z,16.40
2018-06-14T21:47:38.772Z,16.50
2018-06-14T21:50:04.711Z,16.50
2018-06-14T21:52:31.384Z,16.50
2018-06-14T21:54:57.349Z,16.40
2018-06-14T21:57:23.288Z,16.50
2018-06-14T21:59:49.966Z,16.50
2018-06-14T22:02:15.907Z,16.50
2018-06-14T22:04:41.863Z,16.50
2018-06-14T22:07:07.795Z,16.50
2018-06-14T22:09:34.481Z,16.60
2018-06-14T22:12:00.450Z,16.50
2018-06-14T22:14:27.135Z,16.50
2018-06-14T22:16:53.083Z,16.50
2018-06-14T22:19:19.026Z,16.50
2018-06-14T22:21:44.993Z,16.40
2018-06-14T22:24:10.910Z,16.40
2018-06-14T22:26:36.861Z,16.30
2018-06-14T22:29:02.823Z,16.20
2018-06-14T22:31:28.743Z,16.10
2018-06-14T22:33:54.693Z,16.00
2018-06-14T22:36:21.348Z,15.80
2018-06-14T22:38:47.304Z,15.80
2018-06-14T22:41:13.239Z,15.70
2018-06-14T22:43:39.195Z,15.60
2018-06-14T22:46:05.128Z,15.50
2018-06-14T22:48:31.061Z,15.40
2018-06-14T22:50:57.004Z,15.30
2018-06-14T22:53:22.940Z,15.30
2018-06-14T22:55:48.901Z,15.20
2018-06-14T22:58:15.579Z,15.10
2018-06-14T23:00:41.495Z,15.10
2018-06-14T23:03:07.453Z,15.10
2018-06-14T23:05:33.388Z,15.00
2018-06-14T23:07:59.358Z,14.90
2018-06-14T23:10:25.309Z,14.90
2018-06-14T23:12:51.248Z,14.90
2018-06-14T23:15:17.173Z,14.80
2018-06-14T23:17:43.886Z,14.80
2018-06-14T23:20:09.829Z,14.80
2018-06-14T23:22:35.767Z,14.70
2018-06-14T23:25:02.457Z,14.60
2018-06-14T23:27:29.124Z,14.60
2018-06-14T23:29:55.092Z,14.60
2018-06-14T23:32:21.041Z,14.60
2018-06-14T23:34:46.992Z,14.60
2018-06-14T23:37:12.923Z,14.50
2018-06-14T23:39:38.860Z,14.50
2018-06-14T23:42:05.577Z,14.40
2018-06-14T23:44:31.498Z,14.40
2018-06-14T23:46:57.475Z,14.40
2018-06-14T23:49:23.411Z,14.30
2018-06-14T23:51:49.357Z,14.30
2018-06-14T23:54:15.284Z,14.20
2018-06-14T23:56:41.232Z,14.20
2018-06-14T23:59:07.892Z,14.10
